CSS3 weather

Montreal / Les Cèdres Airport
Montréal, Quebec, Canada

Public forecast

Using degrees Celsius for public forecast. Weather courtesy of forecast.io.

METAR (pilot weather report)

Closest report is Montreal / Pierre Elliott Trudeau International Airport, 16.0 nm (29.6 km) ENE. Retrieved 2019/05/20 07:33 UTC (41 minutes ago):

CYUL 200733Z 00000KT 8SM FEW008 OVC052 12/12 A2966 RMK SF1SC8 SF TR SLP046 DENSITY ALT 200FT

TAF (pilot weather forecast)

Closest forecast is Montreal / Pierre Elliott Trudeau International Airport, 16.0 nm (29.6 km) ENE. Retrieved 2019/05/20 09:42 UTC (0 seconds ago):

TAF TAF CYUL 200838Z 2009/2106 VRB03KT WS010/24030KT 6SM BR SCT004 TEMPO 2009/2012 2SM BR BKN004 PROB30 2009/2012 1/2SM FG VV002 FM201200 22008KT P6SM SCT007 BKN030 BKN070 TEMPO 2012/2017 4SM -SHRA BR BKN007 OVC030 BECMG 2015/2017 23015G30KT FM201700 23015G30KT P6SM BKN040 TEMPO 2019/2022 VRB20G35KT P6SM -SHRA VCTS BKN040CB FM210000 24015G25KT P6SM -SHRA OVC030 BECMG 2100/2102 28015G25KT FM210300 28012G22KT 6SM -SHRA BR OVC020 RMK NXT FCST BY 201200Z